Time;durP1;ratioP1;P1;durP2;ratioP2;P2;SDS_P1;SDS_P2;PMS_P1;PMS_P2;Temp;Humidity;BMP_temperature;BMP_pressure;BME280_temperature;BME280_humidity;BME280_pressure;Samples;Min_cycle;Max_cycle;Signal;HPM_P1;HPM_P2
2023/06/25 00:01:18;;;;;;;6.28;3.83;;;;;;;22.31;nan;62244.75;5092329;28;20272;-61
2023/06/25 00:03:44;;;;;;;6.25;3.80;;;;;;;22.11;nan;61839.31;5092273;28;20169;-60
2023/06/25 00:06:10;;;;;;;6.00;3.83;;;;;;;22.19;nan;61846.38;5092304;28;20648;-60
2023/06/25 00:08:35;;;;;;;5.85;3.70;;;;;;;21.97;nan;61780.31;5092812;28;20176;-59
2023/06/25 00:11:01;;;;;;;8.30;4.28;;;;;;;22.18;nan;62009.22;5092979;28;20260;-60
2023/06/25 00:13:26;;;;;;;7.38;3.50;;;;;;;21.84;nan;61960.66;5092290;28;20166;-59
2023/06/25 00:15:51;;;;;;;4.70;3.22;;;;;;;21.66;nan;61989.59;5092250;28;20231;-60
2023/06/25 00:18:17;;;;;;;9.32;4.35;;;;;;;21.72;nan;61923.63;5092307;28;20208;-59
2023/06/25 00:20:42;;;;;;;6.18;3.75;;;;;;;21.84;nan;61812.38;5092232;28;20613;-60
2023/06/25 00:23:08;;;;;;;7.82;4.40;;;;;;;22.34;nan;61878.44;5091882;28;20177;-60
2023/06/25 00:25:34;;;;;;;5.47;3.42;;;;;;;21.95;nan;61850.34;5092092;28;20177;-61
2023/06/25 00:28:00;;;;;;;7.28;3.70;;;;;;;21.94;nan;61911.66;5092569;28;20166;-60
2023/06/25 00:30:25;;;;;;;6.95;4.22;;;;;;;22.07;nan;61858.78;5092351;28;20196;-59
2023/06/25 00:32:54;;;;;;;6.07;3.67;;;;;;;22.22;nan;61880.44;5092437;28;20267;-60
2023/06/25 00:35:24;;;;;;;6.03;3.60;;;;;;;21.98;nan;61802.28;5091594;28;20180;-60
2023/06/25 00:37:51;;;;;;;6.28;4.10;;;;;;;22.06;nan;61873.25;5091732;28;20210;-60
2023/06/25 00:40:17;;;;;;;12.07;4.07;;;;;;;21.93;nan;61952.72;5091694;28;20338;-60
2023/06/25 00:42:44;;;;;;;6.53;3.83;;;;;;;21.93;nan;61829.84;5091880;28;20277;-60
2023/06/25 00:45:13;;;;;;;6.60;4.00;;;;;;;21.68;nan;61830.66;5091981;28;20165;-60
2023/06/25 00:47:41;;;;;;;7.97;3.80;;;;;;;21.89;nan;61849.28;5092051;28;20173;-59
2023/06/25 00:50:11;;;;;;;6.93;4.10;;;;;;;21.76;nan;61776.72;5091547;28;20299;-59
2023/06/25 00:52:37;;;;;;;6.43;4.05;;;;;;;21.57;nan;61764.09;5090392;28;20173;-59
2023/06/25 00:55:03;;;;;;;7.68;4.30;;;;;;;21.85;nan;61831.72;5091697;28;20208;-61
2023/06/25 00:57:29;;;;;;;7.93;4.40;;;;;;;21.57;nan;61789.53;5091796;28;20236;-59
2023/06/25 00:59:56;;;;;;;6.93;4.30;;;;;;;21.91;nan;61877.00;5091735;28;20644;-60
2023/06/25 01:02:34;;;;;;;6.00;4.00;;;;;;;21.77;nan;62131.63;5091628;28;20270;-60
2023/06/25 01:05:12;;;;;;;6.35;4.00;;;;;;;21.59;nan;62033.66;5091854;28;20631;-60
2023/06/25 01:07:45;;;;;;;7.63;4.18;;;;;;;21.72;nan;61785.19;5091456;28;20251;-60
2023/06/25 01:10:12;;;;;;;7.07;4.15;;;;;;;21.49;nan;61746.66;5091471;28;20538;-60
2023/06/25 01:12:38;;;;;;;5.75;3.78;;;;;;;21.47;nan;61807.34;5092183;28;20173;-60
2023/06/25 01:15:04;;;;;;;5.95;3.83;;;;;;;21.75;nan;61807.38;5091664;28;20222;-60
2023/06/25 01:17:30;;;;;;;8.70;4.07;;;;;;;20.65;nan;61821.88;5091731;28;20231;-60
2023/06/25 01:19:55;;;;;;;5.88;3.80;;;;;;;21.55;nan;61959.44;5091490;28;20204;-61
2023/06/25 01:22:31;;;;;;;6.53;4.20;;;;;;;21.68;nan;61850.88;5091633;28;20184;-60
2023/06/25 01:24:57;;;;;;;7.93;4.68;;;;;;;21.61;nan;61801.88;5092128;28;20226;-60
2023/06/25 01:27:23;;;;;;;7.85;4.28;;;;;;;21.37;nan;61902.00;5091567;28;20181;-60
2023/06/25 01:29:49;;;;;;;7.20;4.15;;;;;;;21.58;nan;61851.06;5091359;28;20196;-60
2023/06/25 01:32:15;;;;;;;6.75;4.00;;;;;;;21.54;nan;62079.97;5091617;28;20188;-61
2023/06/25 01:34:41;;;;;;;7.60;4.15;;;;;;;21.28;nan;61801.38;5091088;28;20253;-60
2023/06/25 01:37:07;;;;;;;7.43;4.20;;;;;;;21.58;nan;62165.16;5091887;28;20285;-60
2023/06/25 01:39:32;;;;;;;6.47;4.00;;;;;;;21.49;nan;62017.66;5091830;28;20203;-59
2023/06/25 01:41:58;;;;;;;6.97;4.22;;;;;;;21.59;nan;61893.78;5091307;28;20180;-59
2023/06/25 01:44:31;;;;;;;6.38;3.97;;;;;;;20.78;nan;61913.97;5091387;28;20201;-60
2023/06/25 01:46:58;;;;;;;7.13;4.35;;;;;;;21.37;nan;61894.78;5091348;28;20265;-60
2023/06/25 01:49:24;;;;;;;8.45;4.10;;;;;;;21.32;nan;61605.22;5094814;28;20177;-60
2023/06/25 01:51:50;;;;;;;7.13;4.05;;;;;;;21.28;nan;61780.59;5094858;28;20169;-60
2023/06/25 01:54:15;;;;;;;7.70;4.03;;;;;;;21.19;nan;61865.97;5094854;28;20657;-59
2023/06/25 01:56:42;;;;;;;6.35;3.75;;;;;;;21.37;nan;61795.44;5095015;28;20189;-59
2023/06/25 01:59:08;;;;;;;6.07;4.20;;;;;;;21.57;nan;61807.75;5095046;28;20176;-60
2023/06/25 02:01:33;;;;;;;6.82;3.80;;;;;;;21.46;nan;61779.66;5094530;28;20217;-59
2023/06/25 02:03:59;;;;;;;5.82;3.80;;;;;;;21.35;nan;61894.56;5094708;28;20173;-60
2023/06/25 02:06:25;;;;;;;8.20;3.97;;;;;;;21.46;nan;61800.44;5094955;28;20545;-59
2023/06/25 02:08:50;;;;;;;5.63;3.88;;;;;;;20.69;nan;61859.59;5094669;28;20173;-61
2023/06/25 02:11:16;;;;;;;6.55;4.30;;;;;;;21.54;nan;61851.16;5094685;28;20223;-60
2023/06/25 02:13:41;;;;;;;8.00;4.70;;;;;;;21.30;nan;61751.69;5094822;28;20165;-59
2023/06/25 02:16:07;;;;;;;7.32;4.00;;;;;;;21.38;nan;62093.50;5094536;28;20291;-59
2023/06/25 02:18:32;;;;;;;6.65;3.80;;;;;;;21.53;nan;61821.97;5094567;28;20709;-60
2023/06/25 02:20:58;;;;;;;5.32;3.60;;;;;;;21.45;nan;61805.09;5094484;28;20169;-61
2023/06/25 02:23:24;;;;;;;8.55;4.63;;;;;;;21.21;nan;61709.72;5093718;28;20645;-60
2023/06/25 02:25:52;;;;;;;7.03;3.92;;;;;;;21.13;nan;61706.97;5093932;28;20173;-59
2023/06/25 02:28:18;;;;;;;6.65;4.32;;;;;;;21.40;nan;61788.44;5093827;28;20533;-59
2023/06/25 02:30:43;;;;;;;6.22;4.20;;;;;;;21.30;nan;61762.06;5093844;28;20223;-59
2023/06/25 02:33:09;;;;;;;9.57;4.07;;;;;;;21.07;nan;61871.06;5093960;28;20623;-59
2023/06/25 02:35:34;;;;;;;7.55;4.30;;;;;;;21.24;nan;61726.09;5093809;28;20187;-60
2023/06/25 02:38:00;;;;;;;7.90;4.15;;;;;;;21.02;nan;61810.81;5093544;28;20173;-59
2023/06/25 02:40:27;;;;;;;5.75;3.83;;;;;;;21.20;nan;61716.94;5093777;28;20172;-60
2023/06/25 02:42:53;;;;;;;7.85;4.50;;;;;;;21.06;nan;61740.59;5093731;28;20217;-60
2023/06/25 02:45:18;;;;;;;6.13;3.88;;;;;;;21.11;nan;61865.78;5093565;28;20170;-60
2023/06/25 02:47:44;;;;;;;6.68;4.22;;;;;;;20.81;nan;61716.88;5092476;28;20221;-61
2023/06/25 02:50:10;;;;;;;7.00;4.50;;;;;;;20.76;nan;61690.97;5093439;28;20321;-60
2023/06/25 02:52:35;;;;;;;6.90;4.13;;;;;;;20.87;nan;61659.28;5093396;28;20181;-63
2023/06/25 02:55:00;;;;;;;6.70;3.72;;;;;;;21.10;nan;61755.50;5093162;28;20234;-60
2023/06/25 02:57:29;;;;;;;10.65;4.50;;;;;;;20.88;nan;61755.97;5093219;28;20201;-60
2023/06/25 02:59:55;;;;;;;7.35;4.57;;;;;;;21.32;nan;62112.06;5092675;28;20322;-60
2023/06/25 03:02:21;;;;;;;9.93;5.20;;;;;;;21.46;nan;61800.44;5094163;28;20232;-60
2023/06/25 03:04:46;;;;;;;6.32;4.18;;;;;;;21.72;nan;61843.00;5093828;28;20161;-60
2023/06/25 03:07:11;;;;;;;8.63;4.75;;;;;;;22.09;nan;61969.78;5094138;28;20271;-60
2023/06/25 03:09:37;;;;;;;10.10;4.95;;;;;;;22.60;nan;61923.06;5093433;28;20177;-60
2023/06/25 03:12:03;;;;;;;7.28;4.70;;;;;;;23.04;nan;62003.81;5093312;28;20237;-61
2023/06/25 03:14:28;;;;;;;13.43;4.82;;;;;;;23.32;nan;62064.34;5093208;28;20177;-60
2023/06/25 03:16:53;;;;;;;8.38;4.75;;;;;;;24.09;nan;62227.22;5093410;28;20200;-60
2023/06/25 03:19:19;;;;;;;9.95;5.18;;;;;;;24.70;nan;62337.50;5093500;28;20173;-60
2023/06/25 03:21:44;;;;;;;8.48;5.15;;;;;;;25.53;nan;62405.63;5093378;28;20665;-61
2023/06/25 03:24:09;;;;;;;9.27;4.95;;;;;;;26.05;nan;62474.41;5093251;28;20181;-59
2023/06/25 03:26:35;;;;;;;7.72;4.63;;;;;;;26.39;nan;62559.94;5092985;28;20278;-61
2023/06/25 03:29:00;;;;;;;7.03;4.75;;;;;;;26.85;nan;62517.03;5093045;28;20165;-60
2023/06/25 03:31:26;;;;;;;9.88;5.00;;;;;;;27.29;nan;62692.78;5092750;28;20564;-61
2023/06/25 03:33:51;;;;;;;8.32;4.93;;;;;;;28.10;nan;62675.34;5092835;28;20173;-60
2023/06/25 03:36:17;;;;;;;11.27;5.78;;;;;;;28.33;nan;62832.56;5093028;28;20196;-60
2023/06/25 03:38:42;;;;;;;7.75;4.75;;;;;;;29.28;nan;62918.88;5093231;28;20593;-59
2023/06/25 03:41:07;;;;;;;8.60;5.20;;;;;;;29.90;nan;62981.09;5093074;28;20180;-59
2023/06/25 03:43:33;;;;;;;8.45;4.82;;;;;;;30.36;nan;63049.22;5092735;28;20211;-60
2023/06/25 03:45:58;;;;;;;8.10;4.53;;;;;;;28.86;nan;62955.44;5092437;28;20173;-61
2023/06/25 03:48:23;;;;;;;9.82;5.13;;;;;;;31.40;nan;63231.78;5091832;28;20396;-59
2023/06/25 03:50:49;;;;;;;8.15;5.00;;;;;;;31.45;nan;63411.97;5092689;28;20196;-60
2023/06/25 03:53:16;;;;;;;5.65;3.97;;;;;;;31.88;nan;63304.47;5092757;28;20548;-60
2023/06/25 03:55:42;;;;;;;6.95;4.70;;;;;;;31.86;nan;63267.81;5092197;28;20253;-59
2023/06/25 03:58:08;;;;;;;6.97;4.55;;;;;;;31.42;nan;63315.44;5092505;28;20643;-61
2023/06/25 04:00:33;;;;;;;7.72;4.30;;;;;;;32.23;nan;63426.88;5092628;28;20172;-60
2023/06/25 04:02:59;;;;;;;7.18;4.22;;;;;;;31.86;nan;63376.78;5092899;28;20217;-60
2023/06/25 04:05:24;;;;;;;6.60;4.35;;;;;;;32.05;nan;63461.63;5092786;28;20172;-59
2023/06/25 04:07:49;;;;;;;8.65;4.82;;;;;;;31.41;nan;63351.84;5092461;28;20165;-59
2023/06/25 04:10:15;;;;;;;6.60;4.35;;;;;;;31.30;nan;63188.56;5092248;28;20169;-60
2023/06/25 04:12:40;;;;;;;7.18;4.43;;;;;;;31.24;nan;63202.78;5092382;28;20567;-60
2023/06/25 04:15:06;;;;;;;7.68;4.05;;;;;;;31.41;nan;63232.34;5091862;28;20289;-58
2023/06/25 04:17:31;;;;;;;6.20;4.05;;;;;;;30.92;nan;63210.78;5092732;28;20675;-60
2023/06/25 04:19:57;;;;;;;5.72;3.92;;;;;;;30.84;nan;63085.41;5092174;28;20172;-60
2023/06/25 04:22:22;;;;;;;9.13;4.82;;;;;;;30.27;nan;62942.44;5092030;28;20176;-60
2023/06/25 04:24:48;;;;;;;7.10;4.60;;;;;;;31.02;nan;63096.16;5090951;28;20169;-61
2023/06/25 04:27:13;;;;;;;6.28;3.80;;;;;;;31.31;nan;63157.41;5091155;28;20177;-60
2023/06/25 04:29:39;;;;;;;6.78;4.20;;;;;;;31.84;nan;63332.19;5091173;28;20187;-61
2023/06/25 04:32:05;;;;;;;6.15;3.95;;;;;;;31.99;nan;63441.50;5092175;28;20176;-61
2023/06/25 04:34:30;;;;;;;4.47;3.22;;;;;;;30.73;nan;63052.22;5091518;28;20225;-60
2023/06/25 04:36:56;;;;;;;5.07;3.22;;;;;;;31.04;nan;63150.69;5091575;28;20200;-62
2023/06/25 04:39:21;;;;;;;5.05;3.63;;;;;;;31.43;nan;63251.09;5091809;28;20659;-61
2023/06/25 04:41:46;;;;;;;5.03;3.25;;;;;;;31.27;nan;63243.22;5091556;28;20223;-60
2023/06/25 04:44:12;;;;;;;7.70;3.42;;;;;;;30.12;nan;63004.31;5091237;28;20175;-60
2023/06/25 04:46:37;;;;;;;4.38;2.90;;;;;;;29.94;nan;62935.63;5091828;28;20217;-59
2023/06/25 04:49:03;;;;;;;4.68;3.08;;;;;;;29.09;nan;62857.56;5091935;28;20167;-60
2023/06/25 04:51:28;;;;;;;4.93;3.08;;;;;;;28.88;nan;62755.69;5091666;28;20211;-61
2023/06/25 04:53:54;;;;;;;5.60;2.85;;;;;;;29.07;nan;62837.44;5090311;28;20208;-61
2023/06/25 04:56:19;;;;;;;3.72;2.83;;;;;;;28.85;nan;62754.31;5092006;28;20224;-61
2023/06/25 04:58:45;;;;;;;4.22;2.80;;;;;;;29.40;nan;62901.09;5091018;28;20184;-60
2023/06/25 05:01:10;;;;;;;4.22;2.80;;;;;;;29.17;nan;62848.91;5091432;28;20248;-60
2023/06/25 05:03:36;;;;;;;6.88;3.10;;;;;;;28.78;nan;62894.19;5091612;28;20165;-61
2023/06/25 05:06:01;;;;;;;4.32;3.15;;;;;;;29.09;nan;62892.38;5091306;28;20172;-61
2023/06/25 05:08:26;;;;;;;5.20;3.35;;;;;;;28.01;nan;62701.81;5091007;28;20217;-60
2023/06/25 05:10:52;;;;;;;6.05;4.15;;;;;;;26.83;nan;62528.41;5091114;28;20600;-61
2023/06/25 05:13:17;;;;;;;6.47;4.22;;;;;;;25.99;nan;62677.09;5091011;28;20248;-60
2023/06/25 05:15:43;;;;;;;7.93;4.47;;;;;;;25.41;nan;62329.13;5091098;28;20308;-60
2023/06/25 05:18:09;;;;;;;6.32;4.15;;;;;;;25.41;nan;62287.25;5091373;28;20663;-62
2023/06/25 05:20:38;;;;;;;6.57;4.32;;;;;;;26.08;nan;62398.69;5091273;28;20205;-60
2023/06/25 05:23:04;;;;;;;6.32;4.43;;;;;;;27.05;nan;62537.84;5093273;28;20169;-61
2023/06/25 05:25:31;;;;;;;7.55;5.10;;;;;;;28.14;nan;62707.69;5095388;28;20169;-61
2023/06/25 05:27:56;;;;;;;7.10;4.70;;;;;;;28.08;nan;62751.28;5095012;28;20169;-62
2023/06/25 05:30:22;;;;;;;7.32;4.88;;;;;;;27.36;nan;62575.38;5094611;28;20188;-61
2023/06/25 05:32:48;;;;;;;7.72;4.85;;;;;;;27.47;nan;62705.53;5095096;28;20177;-62
2023/06/25 05:35:13;;;;;;;8.02;5.22;;;;;;;27.85;nan;62656.59;5095081;28;20226;-61
2023/06/25 05:37:39;;;;;;;8.20;4.82;;;;;;;28.56;nan;62750.56;5093803;28;20196;-62
2023/06/25 05:40:05;;;;;;;10.70;4.68;;;;;;;28.88;nan;62805.69;5093668;28;20176;-61
2023/06/25 05:42:31;;;;;;;6.03;4.18;;;;;;;29.78;nan;62944.16;5094750;28;20692;-61
2023/06/25 05:44:56;;;;;;;7.97;4.55;;;;;;;29.67;nan;62911.03;5094832;28;20169;-61
2023/06/25 05:47:21;;;;;;;8.63;5.25;;;;;;;29.05;nan;62864.09;5095112;28;20157;-60
2023/06/25 05:49:47;;;;;;;8.02;4.60;;;;;;;27.98;nan;62653.69;5094726;28;20183;-61
2023/06/25 05:52:12;;;;;;;7.75;4.90;;;;;;;27.81;nan;62663.13;5094798;28;20260;-61
2023/06/25 05:54:37;;;;;;;6.22;4.40;;;;;;;27.12;nan;62606.22;5095162;28;20608;-61
2023/06/25 05:57:03;;;;;;;10.05;5.07;;;;;;;27.27;nan;62546.72;5094384;28;20203;-61
2023/06/25 05:59:29;;;;;;;9.07;5.10;;;;;;;27.19;nan;62519.75;5094477;28;20632;-61
2023/06/25 06:01:54;;;;;;;6.40;4.38;;;;;;;27.52;nan;62577.94;5094629;28;20217;-62
2023/06/25 06:04:19;;;;;;;10.63;4.30;;;;;;;27.87;nan;62664.16;5094464;28;20179;-61
2023/06/25 06:06:45;;;;;;;6.10;3.85;;;;;;;27.96;nan;62674.47;5094637;28;20165;-61
2023/06/25 06:09:10;;;;;;;3.65;2.50;;;;;;;27.69;nan;62641.50;5094691;28;20169;-60
2023/06/25 06:11:36;;;;;;;7.63;3.50;;;;;;;27.99;nan;62710.00;5094513;28;20161;-61
2023/06/25 06:14:01;;;;;;;5.80;3.50;;;;;;;27.51;nan;62637.22;5094365;28;20165;-61
2023/06/25 06:16:27;;;;;;;8.95;3.80;;;;;;;27.58;nan;62703.00;5094551;28;20577;-61
2023/06/25 06:18:52;;;;;;;6.78;3.53;;;;;;;27.67;nan;62605.06;5094447;28;20160;-61
2023/06/25 06:21:17;;;;;;;6.18;3.80;;;;;;;27.80;nan;62619.34;5094243;28;20667;-61
2023/06/25 06:23:43;;;;;;;6.97;3.75;;;;;;;28.18;nan;62725.97;5094269;28;20192;-62
2023/06/25 06:26:08;;;;;;;5.18;3.25;;;;;;;27.89;nan;62780.00;5094277;28;20181;-61
2023/06/25 06:28:34;;;;;;;5.18;3.72;;;;;;;27.84;nan;62695.44;5093981;28;20174;-61
2023/06/25 06:30:59;;;;;;;5.68;3.35;;;;;;;27.90;nan;62709.63;5094234;28;20164;-61
2023/06/25 06:33:24;;;;;;;5.75;3.38;;;;;;;27.96;nan;62843.22;5093909;28;20759;-61
2023/06/25 06:35:50;;;;;;;6.30;3.38;;;;;;;27.85;nan;62636.16;5093746;28;20173;-61
2023/06/25 06:38:15;;;;;;;11.63;3.63;;;;;;;27.64;nan;62720.38;5092533;28;20188;-61
2023/06/25 06:40:41;;;;;;;6.63;3.30;;;;;;;28.10;nan;62711.53;5093336;28;20172;-61
2023/06/25 06:43:06;;;;;;;6.82;3.55;;;;;;;27.99;nan;62646.94;5093935;28;20184;-61
2023/06/25 06:45:31;;;;;;;8.20;4.28;;;;;;;28.37;nan;62807.66;5094884;28;20209;-61
2023/06/25 06:47:57;;;;;;;7.22;3.95;;;;;;;28.39;nan;62746.84;5094148;28;20622;-61
2023/06/25 06:50:22;;;;;;;6.15;3.97;;;;;;;28.73;nan;62862.16;5094377;28;20157;-61
2023/06/25 06:52:48;;;;;;;8.10;3.60;;;;;;;28.68;nan;62811.09;5093157;28;20180;-61
2023/06/25 06:55:13;;;;;;;6.07;3.80;;;;;;;28.54;nan;62916.59;5092401;28;20275;-61
2023/06/25 06:57:38;;;;;;;8.48;4.13;;;;;;;28.50;nan;62754.75;5092204;28;20222;-62
2023/06/25 07:00:05;;;;;;;6.43;4.03;;;;;;;28.38;nan;62879.81;5092823;28;20217;-61
2023/06/25 07:02:30;;;;;;;6.70;4.18;;;;;;;28.11;nan;62721.16;5093244;28;20692;-61
2023/06/25 07:04:55;;;;;;;9.70;4.10;;;;;;;28.41;nan;62851.69;5093479;28;20200;-61
2023/06/25 07:07:21;;;;;;;9.50;4.75;;;;;;;28.42;nan;62716.69;5093354;28;20198;-61
2023/06/25 07:09:56;;;;;;;10.35;4.40;;;;;;;28.61;nan;62826.75;5093572;28;20164;-62
2023/06/25 07:12:21;;;;;;;7.50;4.40;;;;;;;29.03;nan;62795.41;5093892;28;20771;-61
2023/06/25 07:14:47;;;;;;;9.93;4.70;;;;;;;28.93;nan;62779.84;5093911;28;20194;-62
2023/06/25 07:17:13;;;;;;;6.68;4.05;;;;;;;29.16;nan;62850.41;5093444;28;20760;-62
2023/06/25 07:19:38;;;;;;;7.68;4.40;;;;;;;28.77;nan;62787.22;5093823;28;20180;-61
2023/06/25 07:22:04;;;;;;;9.85;5.13;;;;;;;28.98;nan;62935.03;5093342;28;20566;-61
2023/06/25 07:24:29;;;;;;;8.45;4.68;;;;;;;29.10;nan;62829.75;5093580;28;20563;-62
2023/06/25 07:26:54;;;;;;;7.38;4.22;;;;;;;28.94;nan;62825.72;5093562;28;20732;-62
2023/06/25 07:29:20;;;;;;;7.63;4.57;;;;;;;28.97;nan;62871.28;5093857;28;20164;-62
2023/06/25 07:31:45;;;;;;;7.70;4.40;;;;;;;28.90;nan;62933.75;5093350;28;20173;-61
2023/06/25 07:34:11;;;;;;;5.93;3.83;;;;;;;29.20;nan;62925.50;5093138;28;20165;-63
2023/06/25 07:36:36;;;;;;;6.13;3.88;;;;;;;29.07;nan;62842.13;5093332;28;20196;-61
2023/06/25 07:39:04;;;;;;;8.60;4.15;;;;;;;29.27;nan;62859.81;5093511;28;20630;-62
2023/06/25 07:41:30;;;;;;;9.00;4.75;;;;;;;29.32;nan;62887.19;5092768;28;20165;-63
2023/06/25 07:43:56;;;;;;;8.95;5.53;;;;;;;29.37;nan;62979.28;5093387;28;20533;-61
2023/06/25 07:46:22;;;;;;;7.93;4.80;;;;;;;29.59;nan;62912.38;5092572;28;20181;-61
2023/06/25 07:48:48;;;;;;;8.50;5.00;;;;;;;29.88;nan;62965.59;5092810;28;20524;-62
2023/06/25 07:51:13;;;;;;;8.13;4.80;;;;;;;29.61;nan;62961.50;5093093;28;20241;-62
2023/06/25 07:53:38;;;;;;;7.50;4.43;;;;;;;29.76;nan;63103.19;5092469;28;20230;-62
2023/06/25 07:56:04;;;;;;;8.05;4.63;;;;;;;29.77;nan;63049.00;5093007;28;20232;-62
2023/06/25 07:58:29;;;;;;;8.48;4.72;;;;;;;30.17;nan;63039.09;5092725;28;20226;-62
2023/06/25 08:00:55;;;;;;;9.30;5.05;;;;;;;29.69;nan;62944.34;5092448;28;20661;-61
2023/06/25 08:03:22;;;;;;;6.93;4.53;;;;;;;29.23;nan;62887.38;5092816;28;20751;-61
2023/06/25 08:05:47;;;;;;;11.98;5.22;;;;;;;29.45;nan;62912.09;5092538;28;20177;-62
2023/06/25 08:08:13;;;;;;;7.10;3.97;;;;;;;29.56;nan;63053.81;5092272;28;20177;-61
2023/06/25 08:10:38;;;;;;;8.10;4.70;;;;;;;29.52;nan;62935.94;5092431;28;20708;-61
2023/06/25 08:13:04;;;;;;;6.50;4.22;;;;;;;29.84;nan;63014.31;5093130;28;20217;-61
2023/06/25 08:15:29;;;;;;;9.73;5.05;;;;;;;30.02;nan;63018.63;5092772;28;20233;-61
2023/06/25 08:17:54;;;;;;;6.63;4.47;;;;;;;29.80;nan;62960.19;5092412;28;20197;-61
2023/06/25 08:20:20;;;;;;;7.18;4.18;;;;;;;29.76;nan;62894.41;5092416;28;20203;-62
2023/06/25 08:22:45;;;;;;;8.50;5.13;;;;;;;29.96;nan;62978.03;5092141;28;20207;-61
2023/06/25 08:25:23;;;;;;;9.30;5.10;;;;;;;30.04;nan;63050.50;5091823;28;20317;-63
2023/06/25 08:27:50;;;;;;;12.45;6.72;;;;;;;30.35;nan;63069.19;5092017;28;20192;-62
2023/06/25 08:30:15;;;;;;;8.98;4.97;;;;;;;30.58;nan;63370.72;5092032;28;20247;-62
2023/06/25 08:32:41;;;;;;;11.48;4.75;;;;;;;30.81;nan;63130.06;5091983;28;20268;-61
2023/06/25 08:35:07;;;;;;;10.95;4.97;;;;;;;30.61;nan;63081.22;5092366;28;20156;-62
2023/06/25 08:37:33;;;;;;;7.43;4.28;;;;;;;30.70;nan;63191.88;5091680;28;20727;-61
2023/06/25 08:39:59;;;;;;;8.40;4.75;;;;;;;31.05;nan;63154.47;5092343;28;20173;-62
2023/06/25 08:42:24;;;;;;;8.63;4.95;;;;;;;30.99;nan;63240.56;5092495;28;20165;-61
2023/06/25 08:44:50;;;;;;;5.68;4.00;;;;;;;30.90;nan;63139.84;5092153;28;20168;-62
2023/06/25 08:47:19;;;;;;;7.70;4.90;;;;;;;30.96;nan;63157.31;5092056;28;20179;-61
2023/06/25 08:49:49;;;;;;;8.65;4.63;;;;;;;30.62;nan;63166.81;5091658;28;20172;-62
2023/06/25 08:52:18;;;;;;;6.70;4.45;;;;;;;30.29;nan;63033.84;5091929;28;20650;-62
2023/06/25 08:54:45;;;;;;;7.70;4.53;;;;;;;30.71;nan;63224.69;5092233;28;20179;-62
2023/06/25 08:57:10;;;;;;;7.10;4.60;;;;;;;30.92;nan;63205.50;5092144;28;20765;-62
2023/06/25 08:59:36;;;;;;;8.23;4.55;;;;;;;31.22;nan;63207.81;5096139;28;20180;-61
2023/06/25 09:02:02;;;;;;;7.93;4.18;;;;;;;31.18;nan;63290.38;5095678;28;20659;-62
2023/06/25 09:04:28;;;;;;;9.80;6.00;;;;;;;31.10;nan;63179.31;5095915;28;20225;-62
2023/06/25 09:06:53;;;;;;;7.80;4.72;;;;;;;30.37;nan;63079.41;5095893;28;20276;-62
2023/06/25 09:09:19;;;;;;;7.53;4.60;;;;;;;30.54;nan;63035.66;5095775;28;20256;-62
2023/06/25 09:11:44;;;;;;;6.38;4.65;;;;;;;30.32;nan;63127.00;5095671;28;20593;-62
2023/06/25 09:14:10;;;;;;;7.57;4.78;;;;;;;30.27;nan;63321.69;5095745;28;20164;-61
2023/06/25 09:16:49;;;;;;;10.05;5.38;;;;;;;30.52;nan;63075.59;5095725;28;20702;-62
2023/06/25 09:19:18;;;;;;;13.32;5.32;;;;;;;30.50;nan;63018.44;5095601;28;20161;-61
2023/06/25 09:21:44;;;;;;;10.38;5.13;;;;;;;30.96;nan;63123.56;5096103;28;20233;-62
2023/06/25 09:24:15;;;;;;;8.10;5.22;;;;;;;30.90;nan;63251.31;5095689;28;20173;-62
2023/06/25 09:26:53;;;;;;;6.00;4.30;;;;;;;30.88;nan;63211.47;5095684;28;20260;-62
2023/06/25 09:29:21;;;;;;;7.60;4.40;;;;;;;30.73;nan;63134.03;5095507;28;20187;-61
2023/06/25 09:31:48;;;;;;;9.07;4.60;;;;;;;30.87;nan;63397.78;5094953;28;20214;-61
2023/06/25 09:34:16;;;;;;;7.15;4.85;;;;;;;30.75;nan;63122.59;5095410;28;20709;-62
2023/06/25 09:36:42;;;;;;;6.65;4.20;;;;;;;30.86;nan;63267.81;5095166;28;20218;-61
2023/06/25 09:39:10;;;;;;;7.82;4.63;;;;;;;31.33;nan;63178.78;5094554;28;20683;-61
2023/06/25 09:41:38;;;;;;;7.10;4.43;;;;;;;31.63;nan;63267.75;5094558;28;20554;-62
2023/06/25 09:44:05;;;;;;;6.53;4.68;;;;;;;31.58;nan;63292.19;5094923;28;20704;-61
2023/06/25 09:46:34;;;;;;;6.78;4.55;;;;;;;31.56;nan;63212.66;5094662;28;20161;-61
2023/06/25 09:49:03;;;;;;;7.82;5.20;;;;;;;31.55;nan;63336.31;5094773;28;20173;-61
2023/06/25 09:51:51;;;;;;;7.13;4.70;;;;;;;32.04;nan;63293.25;5094864;28;20165;-61
2023/06/25 09:54:21;;;;;;;5.75;4.60;;;;;;;32.40;nan;63422.13;5083654;28;20200;-61
2023/06/25 09:56:48;;;;;;;11.50;5.30;;;;;;;32.29;nan;63351.78;5094489;28;20350;-61
2023/06/25 09:59:14;;;;;;;15.82;7.57;;;;;;;32.59;nan;63436.13;5094693;28;20558;-62
2023/06/25 10:01:40;;;;;;;8.60;5.38;;;;;;;32.77;nan;63406.03;5094490;28;20695;-61
2023/06/25 10:04:06;;;;;;;9.65;5.50;;;;;;;32.51;nan;63328.38;5094857;28;20176;-62
2023/06/25 10:06:32;;;;;;;8.77;4.85;;;;;;;;;;5094995;28;20251;-61
2023/06/25 10:08:57;;;;;;;7.65;4.95;;;;;;;32.24;nan;63393.06;5093977;28;20204;-61
2023/06/25 10:11:23;;;;;;;10.20;6.00;;;;;;;31.93;nan;63331.97;5093790;28;20184;-61
2023/06/25 10:13:49;;;;;;;7.85;5.25;;;;;;;31.44;nan;63170.34;5093988;28;20157;-62
2023/06/25 10:16:19;;;;;;;7.40;4.63;;;;;;;31.51;nan;63199.53;5094760;28;20187;-61
2023/06/25 10:18:46;;;;;;;8.82;5.05;;;;;;;31.31;nan;63257.81;5094932;28;20165;-61
2023/06/25 10:21:19;;;;;;;8.20;5.32;;;;;;;31.48;nan;63230.44;5094587;28;20169;-62
2023/06/25 10:23:54;;;;;;;8.02;5.38;;;;;;;31.37;nan;63188.69;5094473;28;20186;-61
2023/06/25 10:26:25;;;;;;;7.00;4.70;;;;;;;31.48;nan;63190.78;5093938;28;20259;-61
2023/06/25 10:28:51;;;;;;;8.23;5.03;;;;;;;31.04;nan;63272.19;5094683;28;20184;-62
2023/06/25 10:31:16;;;;;;;9.73;5.20;;;;;;;31.43;nan;63226.72;5094752;28;20181;-61
2023/06/25 10:33:42;;;;;;;8.10;4.93;;;;;;;31.82;nan;63522.91;5094422;28;20251;-61
2023/06/25 10:36:08;;;;;;;6.75;4.63;;;;;;;32.12;nan;63336.88;5094177;28;20263;-61
2023/06/25 10:38:34;;;;;;;6.70;4.45;;;;;;;32.14;nan;63357.72;5094220;28;20172;-61
2023/06/25 10:40:59;;;;;;;6.65;4.75;;;;;;;32.39;nan;63585.66;5094264;28;20183;-61
2023/06/25 10:43:25;;;;;;;6.25;4.43;;;;;;;32.70;nan;63440.91;5094333;28;20200;-61
2023/06/25 10:45:55;;;;;;;7.88;4.95;;;;;;;32.61;nan;63361.06;5094220;28;20186;-62
2023/06/25 10:48:21;;;;;;;8.75;5.28;;;;;;;32.97;nan;63439.16;5094113;28;20184;-61
2023/06/25 10:50:48;;;;;;;6.88;4.68;;;;;;;32.79;nan;63451.28;5093954;28;20196;-62
2023/06/25 10:53:15;;;;;;;7.70;4.60;;;;;;;33.03;nan;63568.53;5093729;28;20173;-61
2023/06/25 10:55:46;;;;;;;8.07;5.15;;;;;;;33.15;nan;63518.25;5093670;28;20205;-61
2023/06/25 10:58:19;;;;;;;6.88;4.72;;;;;;;33.51;nan;63607.00;5092789;28;20161;-61
2023/06/25 11:00:45;;;;;;;7.78;4.68;;;;;;;33.27;nan;63617.50;5092256;28;20204;-60
2023/06/25 11:03:13;;;;;;;7.70;5.00;;;;;;;33.40;nan;63631.97;5093149;28;20703;-60
2023/06/25 11:05:40;;;;;;;7.60;5.03;;;;;;;33.38;nan;63666.78;5092820;28;20253;-60
2023/06/25 11:08:07;;;;;;;6.45;4.80;;;;;;;33.44;nan;63599.47;5093448;28;20172;-61
2023/06/25 11:10:34;;;;;;;8.32;4.32;;;;;;;32.77;nan;63419.28;5093391;28;20229;-62
2023/06/25 11:13:00;;;;;;;7.82;4.75;;;;;;;32.75;nan;63565.28;5092705;28;20183;-61
2023/06/25 11:15:33;;;;;;;6.32;4.65;;;;;;;33.29;nan;63566.25;5093048;28;20165;-61
2023/06/25 11:18:00;;;;;;;8.75;5.20;;;;;;;32.95;nan;63442.72;5092877;28;20200;-61
2023/06/25 11:20:26;;;;;;;7.30;4.60;;;;;;;33.09;nan;63492.75;5092155;28;20647;-61
2023/06/25 11:22:53;;;;;;;7.70;4.85;;;;;;;32.76;nan;63476.97;5093246;28;20184;-61
2023/06/25 11:25:21;;;;;;;6.13;4.50;;;;;;;33.10;nan;63764.78;5091580;28;20264;-62
2023/06/25 11:27:50;;;;;;;7.70;4.70;;;;;;;33.17;nan;63603.28;5093395;28;20259;-60
2023/06/25 11:30:16;;;;;;;8.48;5.15;;;;;;;33.20;nan;63534.63;5093383;28;20208;-61
2023/06/25 11:32:41;;;;;;;5.63;4.20;;;;;;;32.88;nan;63570.28;5092691;28;20665;-60
2023/06/25 11:35:10;;;;;;;5.63;4.25;;;;;;;33.36;nan;63614.09;5093318;28;20175;-61
2023/06/25 11:37:49;;;;;;;6.95;4.68;;;;;;;33.15;nan;63497.63;4842206;28;20988;-60
2023/06/25 11:40:25;;;;;;;6.97;4.60;;;;;;;29.98;nan;64871.16;5092648;28;20614;-62
2023/06/25 11:42:51;;;;;;;6.70;4.85;;;;;;;33.30;nan;63538.81;5092968;28;20173;-62
2023/06/25 11:45:18;;;;;;;7.22;4.82;;;;;;;33.33;nan;63795.63;5093013;28;20177;-61
2023/06/25 11:47:46;;;;;;;7.15;5.35;;;;;;;33.01;nan;63579.47;5093490;28;20161;-61